Flight Track Log - Related Links

Times and Time Zones

All times are in EDT time to prevent confusion due to time zone crossing. See the N330CL flight status page for this flight to view local times or setup timezone preferences in your user account.

Time Position Orientation Groundspeed Altitude Reporting Facility
EDT Latitude Longitude Course Direction KTS MPH feet Rate Location/Type
05:50PM 33.8500 -116.5167 301° West 96 110 1,000  Level Southern California TRACON
05:51PM 33.8667 -116.5500 301° West 99 114 1,700 595 Climbing Southern California TRACON
05:52PM 33.8833 -116.5833 301° West 115 132 2,200 694 Climbing Southern California TRACON
05:53PM 33.9000 -116.6000 320° Northwest 93 107 3,100 800 Climbing Southern California TRACON
05:54PM 33.9000 -116.6333 270° West 88 101 3,800 500 Climbing Southern California TRACON
05:55PM 33.9167 -116.6667 301° West 89 102 4,100 316 Climbing Southern California TRACON
05:56PM 33.9167 -116.6833 270° West 88 101 4,400 421 Climbing Southern California TRACON
05:57PM 33.9167 -116.7167 270° West 92 106 4,900 397 Climbing Southern California TRACON
05:58PM 33.9167 -116.7500 270° West 103 119 5,200 397 Climbing Southern California TRACON
05:59PM 33.9167 -116.7833 270° West 104 120 5,700 550 Climbing Southern California TRACON
06:00PM 33.9167 -116.8167 270° West 105 121 6,300 450 Climbing Southern California TRACON
06:01PM 33.9167 -116.8500 270° West 116 133 6,600 150 Climbing Southern California TRACON
06:02PM 33.9167 -116.9000 270° West 132 152 6,600  Level Southern California TRACON
06:03PM 33.9167 -116.9500 270° West 148 170 6,600  Level Southern California TRACON
06:04PM 33.9333 -117.0000 292° West 150 173 6,600  Level Southern California TRACON
06:05PM 33.9333 -117.0500 270° West 156 180 6,600  Level Southern California TRACON
06:06PM 33.9333 -117.1000 270° West 156 180 6,600  Level Southern California TRACON
06:07PM 33.9333 -117.1500 270° West 155 178 6,600  Level Southern California TRACON
06:08PM 33.9333 -117.2167 270° West 157 181 6,600  Level Southern California TRACON
06:09PM 33.9333 -117.2667 270° West 155 178 6,600  Level Southern California TRACON
06:10PM 33.9500 -117.3167 292° West 156 180 6,600  Level Southern California TRACON
06:11PM 33.9500 -117.3667 270° West 156 180 6,600  Level Southern California TRACON
06:12PM 33.9500 -117.4000 270° West 156 180 6,600  Level Southern California TRACON
06:13PM 33.9667 -117.4667 287° West 156 180 6,600  Level Southern California TRACON
06:14PM 33.9833 -117.5167 292° West 154 177 6,600  Level Southern California TRACON
06:15PM 34.0000 -117.5667 292° West 163 188 6,600  Level Southern California TRACON
06:16PM 34.0000 -117.6167 270° West 163 188 6,600  Level Southern California TRACON
06:17PM 34.0167 -117.6667 292° West 159 183 6,600  Level Southern California TRACON
06:18PM 34.0333 -117.7167 292° West 154 177 6,600  Level Southern California TRACON
06:19PM 34.0333 -117.7667 270° West 156 180 6,600  Level Southern California TRACON
06:20PM 34.0500 -117.8167 292° West 157 181 6,600  Level Southern California TRACON
06:21PM 34.0500 -117.8667 270° West 156 180 6,600  Level Southern California TRACON
06:22PM 34.0667 -117.9167 292° West 153 176 6,600 -250 Level Southern California TRACON
06:23PM 34.0667 -117.9667 270° West 169 194 6,100 -524 Descending Southern California TRACON
06:24PM 34.0833 -118.0333 287° West 174 200 5,500 -571 Descending Southern California TRACON
06:25PM 34.0833 -118.1000 270° West 185 213 4,900 -683 Descending Southern California TRACON
06:26PM 34.1131 -118.1425 310° West 181 208 4,100 -384 Descending Los Angeles Center
06:27PM 34.1347 -118.1939 297° West 180 207 4,100 -216 Level Los Angeles Center
06:28PM 34.1500 -118.2500 288° West 175 201 3,700 -522 Descending Southern California TRACON
06:29PM 34.1333 -118.3000 248° West 186 214 3,100 -571 Descending Southern California TRACON
06:30PM 34.1000 -118.3500 231° Southwest 185 213 2,500 -600 Descending Southern California TRACON
06:31PM 34.0667 -118.4000 231° Southwest 174 200 1,900 -850 Descending Southern California TRACON
06:32PM 34.0333 -118.4167 203° Southwest 97 112 800 -739 Descending Southern California TRACON
06:33PM 34.0214 -118.4456 243° Southwest 101 116 200 -462 Descending Los Angeles Center
06:35PM 34.0158 -118.4513 224° Southwest  Level Estimated
06:42PM 34.0158 -118.4513 224° Southwest  Level Estimated

Login

Don't have an account? Register now (free) for customized features, flight alerts, and more!